Terminal Aerodrome Forecast
Issued by NWS

Home | Current Version | Previous Version | Text Only | Print | Product List | Glossary On
Versions: 1 2 3 4 5 6 7 8 9 10 11 12 13 14 15 16 17 18 19 20 21 22 23 24 25 26 27 28 29 30
000
FTUS42 TJSJ 261740
TAFIST
TAF
TIST 261740Z 2618/2718 11008KT P6SM VCSH SCT030 BKN050
      TEMPO 2618/2620 5SM SHRA SCT025 BKN040
     FM262300 07004KT P6SM VCSH FEW030 SCT060
     FM271600 11007KT P6SM SCT040 BKN060=

USA.gov is the U.S. government's official web portal to all federal, state and local government web resources and services.